sensor_id;sensor_type;location;lat;lon;timestamp;temperature;humidity
10437;DHT22;5265;50.006;9.202;2023-02-01T00:01:55;5.00;99.90
10437;DHT22;5265;50.006;9.202;2023-02-01T00:04:23;5.00;99.90
10437;DHT22;5265;50.006;9.202;2023-02-01T00:06:50;4.90;99.90
10437;DHT22;5265;50.006;9.202;2023-02-01T00:29:08;5.10;99.90
10437;DHT22;5265;50.006;9.202;2023-02-01T00:31:36;5.10;99.90
10437;DHT22;5265;50.006;9.202;2023-02-01T00:34:03;5.10;99.90
10437;DHT22;5265;50.006;9.202;2023-02-01T00:36:30;5.20;99.90
10437;DHT22;5265;50.006;9.202;2023-02-01T00:38:58;5.10;98.70
10437;DHT22;5265;50.006;9.202;2023-02-01T00:41:25;5.00;34.70
10437;DHT22;5265;50.006;9.202;2023-02-01T00:43:52;5.10;1.00
10437;DHT22;5265;50.006;9.202;2023-02-01T00:46:20;5.30;1.00
10437;DHT22;5265;50.006;9.202;2023-02-01T00:48:48;5.10;1.00
10437;DHT22;5265;50.006;9.202;2023-02-01T00:51:17;5.30;1.00
10437;DHT22;5265;50.006;9.202;2023-02-01T00:53:45;5.20;1.00
10437;DHT22;5265;50.006;9.202;2023-02-01T00:56:12;5.10;1.00
10437;DHT22;5265;50.006;9.202;2023-02-01T00:58:40;5.30;1.00
10437;DHT22;5265;50.006;9.202;2023-02-01T01:01:08;5.20;1.00
10437;DHT22;5265;50.006;9.202;2023-02-01T01:03:37;5.30;1.00
10437;DHT22;5265;50.006;9.202;2023-02-01T01:06:05;5.40;1.00
10437;DHT22;5265;50.006;9.202;2023-02-01T01:08:32;5.20;1.00
10437;DHT22;5265;50.006;9.202;2023-02-01T01:11:03;5.30;1.00
10437;DHT22;5265;50.006;9.202;2023-02-01T01:13:31;5.40;99.90
10437;DHT22;5265;50.006;9.202;2023-02-01T01:15:59;5.30;99.90
10437;DHT22;5265;50.006;9.202;2023-02-01T01:18:28;5.10;99.90
10437;DHT22;5265;50.006;9.202;2023-02-01T01:20:56;5.30;99.90
10437;DHT22;5265;50.006;9.202;2023-02-01T01:23:24;5.20;99.90
10437;DHT22;5265;50.006;9.202;2023-02-01T01:25:51;5.10;1.00
10437;DHT22;5265;50.006;9.202;2023-02-01T01:28:19;5.20;1.00
10437;DHT22;5265;50.006;9.202;2023-02-01T01:30:46;5.20;1.00
10437;DHT22;5265;50.006;9.202;2023-02-01T01:33:13;5.20;1.00
10437;DHT22;5265;50.006;9.202;2023-02-01T01:35:40;5.40;1.00
10437;DHT22;5265;50.006;9.202;2023-02-01T01:40:38;5.20;1.00
10437;DHT22;5265;50.006;9.202;2023-02-01T01:43:10;5.20;1.00
10437;DHT22;5265;50.006;9.202;2023-02-01T01:45:39;5.10;1.00
10437;DHT22;5265;50.006;9.202;2023-02-01T01:48:07;5.20;1.00
10437;DHT22;5265;50.006;9.202;2023-02-01T01:50:36;5.10;1.00
10437;DHT22;5265;50.006;9.202;2023-02-01T01:53:06;5.20;1.00
10437;DHT22;5265;50.006;9.202;2023-02-01T01:55:36;5.20;1.00
10437;DHT22;5265;50.006;9.202;2023-02-01T01:58:07;5.10;1.00
10437;DHT22;5265;50.006;9.202;2023-02-01T02:00:35;5.10;1.00
10437;DHT22;5265;50.006;9.202;2023-02-01T02:03:03;5.00;1.00
10437;DHT22;5265;50.006;9.202;2023-02-01T02:05:32;5.10;1.00
10437;DHT22;5265;50.006;9.202;2023-02-01T02:07:59;5.10;1.00
10437;DHT22;5265;50.006;9.202;2023-02-01T02:10:27;5.20;1.00
10437;DHT22;5265;50.006;9.202;2023-02-01T02:13:10;5.20;1.00
10437;DHT22;5265;50.006;9.202;2023-02-01T02:15:37;5.20;1.00
10437;DHT22;5265;50.006;9.202;2023-02-01T02:18:08;5.30;1.00
10437;DHT22;5265;50.006;9.202;2023-02-01T02:21:00;5.30;1.00
10437;DHT22;5265;50.006;9.202;2023-02-01T02:26:29;5.20;1.00
10437;DHT22;5265;50.006;9.202;2023-02-01T02:29:07;5.20;32.40
10437;DHT22;5265;50.006;9.202;2023-02-01T02:31:46;5.10;92.40
10437;DHT22;5265;50.006;9.202;2023-02-01T02:34:21;5.20;94.30
10437;DHT22;5265;50.006;9.202;2023-02-01T02:36:54;5.20;9.70
10437;DHT22;5265;50.006;9.202;2023-02-01T02:39:24;5.20;67.70
10437;DHT22;5265;50.006;9.202;2023-02-01T02:41:56;5.20;99.90
10437;DHT22;5265;50.006;9.202;2023-02-01T02:44:45;5.20;99.90
10437;DHT22;5265;50.006;9.202;2023-02-01T02:47:33;5.20;1.00
10437;DHT22;5265;50.006;9.202;2023-02-01T02:50:05;5.10;1.00
10437;DHT22;5265;50.006;9.202;2023-02-01T02:53:07;5.10;1.00
10437;DHT22;5265;50.006;9.202;2023-02-01T02:58:40;4.90;1.00
10437;DHT22;5265;50.006;9.202;2023-02-01T03:06:47;5.10;1.00
10437;DHT22;5265;50.006;9.202;2023-02-01T03:09:16;5.20;1.00
10437;DHT22;5265;50.006;9.202;2023-02-01T03:11:44;5.10;1.00
10437;DHT22;5265;50.006;9.202;2023-02-01T03:14:31;5.30;1.00
10437;DHT22;5265;50.006;9.202;2023-02-01T03:17:01;4.70;1.00
10437;DHT22;5265;50.006;9.202;2023-02-01T03:19:29;5.20;1.00
10437;DHT22;5265;50.006;9.202;2023-02-01T03:22:01;5.10;1.00
10437;DHT22;5265;50.006;9.202;2023-02-01T03:24:31;5.20;1.00
10437;DHT22;5265;50.006;9.202;2023-02-01T03:27:02;5.10;1.00
10437;DHT22;5265;50.006;9.202;2023-02-01T03:29:32;4.80;1.00
10437;DHT22;5265;50.006;9.202;2023-02-01T03:32:00;5.10;1.00
10437;DHT22;5265;50.006;9.202;2023-02-01T03:34:27;5.10;1.00
10437;DHT22;5265;50.006;9.202;2023-02-01T03:36:56;5.00;1.00
10437;DHT22;5265;50.006;9.202;2023-02-01T03:39:27;5.10;99.90
10437;DHT22;5265;50.006;9.202;2023-02-01T03:41:57;5.00;99.90
10437;DHT22;5265;50.006;9.202;2023-02-01T03:44:26;5.00;99.90
10437;DHT22;5265;50.006;9.202;2023-02-01T03:46:56;5.00;99.90
10437;DHT22;5265;50.006;9.202;2023-02-01T03:49:25;5.10;99.90
10437;DHT22;5265;50.006;9.202;2023-02-01T03:51:53;5.00;99.90
10437;DHT22;5265;50.006;9.202;2023-02-01T03:54:22;5.00;99.90
10437;DHT22;5265;50.006;9.202;2023-02-01T03:56:50;4.80;99.90
10437;DHT22;5265;50.006;9.202;2023-02-01T03:59:18;4.90;99.90
10437;DHT22;5265;50.006;9.202;2023-02-01T04:01:45;4.80;99.90
10437;DHT22;5265;50.006;9.202;2023-02-01T04:04:13;5.00;99.90
10437;DHT22;5265;50.006;9.202;2023-02-01T04:06:47;5.00;99.90
10437;DHT22;5265;50.006;9.202;2023-02-01T04:09:14;4.90;99.90
10437;DHT22;5265;50.006;9.202;2023-02-01T04:11:41;5.00;99.90
10437;DHT22;5265;50.006;9.202;2023-02-01T04:14:10;4.90;99.90
10437;DHT22;5265;50.006;9.202;2023-02-01T04:16:37;4.80;99.90
10437;DHT22;5265;50.006;9.202;2023-02-01T04:19:04;4.80;77.90
10437;DHT22;5265;50.006;9.202;2023-02-01T04:21:32;4.70;60.90
10437;DHT22;5265;50.006;9.202;2023-02-01T04:23:59;4.70;91.80
10437;DHT22;5265;50.006;9.202;2023-02-01T04:26:26;4.80;99.90
10437;DHT22;5265;50.006;9.202;2023-02-01T04:28:53;4.90;99.90
10437;DHT22;5265;50.006;9.202;2023-02-01T04:31:22;4.70;99.90
10437;DHT22;5265;50.006;9.202;2023-02-01T04:33:51;4.80;97.70
10437;DHT22;5265;50.006;9.202;2023-02-01T04:36:18;4.90;99.90
10437;DHT22;5265;50.006;9.202;2023-02-01T04:38:47;4.80;50.70
10437;DHT22;5265;50.006;9.202;2023-02-01T04:41:14;4.90;99.90
10437;DHT22;5265;50.006;9.202;2023-02-01T04:43:44;4.90;99.90
10437;DHT22;5265;50.006;9.202;2023-02-01T04:46:11;4.90;99.90
10437;DHT22;5265;50.006;9.202;2023-02-01T04:48:40;4.80;99.90
10437;DHT22;5265;50.006;9.202;2023-02-01T04:51:07;4.70;99.90
10437;DHT22;5265;50.006;9.202;2023-02-01T04:53:35;4.80;99.90
10437;DHT22;5265;50.006;9.202;2023-02-01T04:56:03;5.30;99.90
10437;DHT22;5265;50.006;9.202;2023-02-01T04:58:30;4.90;99.90
10437;DHT22;5265;50.006;9.202;2023-02-01T05:00:57;5.00;99.90
10437;DHT22;5265;50.006;9.202;2023-02-01T05:03:24;5.00;1.00
10437;DHT22;5265;50.006;9.202;2023-02-01T05:05:53;4.80;1.00
10437;DHT22;5265;50.006;9.202;2023-02-01T05:08:20;4.80;1.00
10437;DHT22;5265;50.006;9.202;2023-02-01T05:10:49;5.20;1.00
10437;DHT22;5265;50.006;9.202;2023-02-01T05:13:16;4.90;1.00
10437;DHT22;5265;50.006;9.202;2023-02-01T05:16:01;4.90;1.00
10437;DHT22;5265;50.006;9.202;2023-02-01T05:18:28;4.90;1.00
10437;DHT22;5265;50.006;9.202;2023-02-01T05:20:56;4.90;1.00
10437;DHT22;5265;50.006;9.202;2023-02-01T05:25:51;4.70;28.60
10437;DHT22;5265;50.006;9.202;2023-02-01T05:30:46;4.90;76.10
10437;DHT22;5265;50.006;9.202;2023-02-01T05:33:14;5.30;93.00
10437;DHT22;5265;50.006;9.202;2023-02-01T05:35:40;5.30;99.90
10437;DHT22;5265;50.006;9.202;2023-02-01T05:38:09;5.10;99.90
10437;DHT22;5265;50.006;9.202;2023-02-01T05:40:36;5.00;99.90
10437;DHT22;5265;50.006;9.202;2023-02-01T05:43:03;5.00;99.90
10437;DHT22;5265;50.006;9.202;2023-02-01T05:45:30;4.80;99.90
10437;DHT22;5265;50.006;9.202;2023-02-01T05:47:57;5.30;99.90
10437;DHT22;5265;50.006;9.202;2023-02-01T05:50:24;5.10;99.90
10437;DHT22;5265;50.006;9.202;2023-02-01T05:52:56;5.10;35.50
10437;DHT22;5265;50.006;9.202;2023-02-01T05:55:24;4.90;25.00
10437;DHT22;5265;50.006;9.202;2023-02-01T05:57:51;5.00;1.00
10437;DHT22;5265;50.006;9.202;2023-02-01T06:17:39;5.20;1.00
10437;DHT22;5265;50.006;9.202;2023-02-01T06:20:07;5.40;1.00
10437;DHT22;5265;50.006;9.202;2023-02-01T06:22:34;5.20;12.90
10437;DHT22;5265;50.006;9.202;2023-02-01T06:25:02;4.90;57.20
10437;DHT22;5265;50.006;9.202;2023-02-01T06:27:29;5.50;1.00
10437;DHT22;5265;50.006;9.202;2023-02-01T06:29:56;5.10;1.00
10437;DHT22;5265;50.006;9.202;2023-02-01T06:32:23;5.20;1.00
10437;DHT22;5265;50.006;9.202;2023-02-01T06:34:52;5.10;1.00
10437;DHT22;5265;50.006;9.202;2023-02-01T06:37:19;5.10;1.00
10437;DHT22;5265;50.006;9.202;2023-02-01T06:39:46;5.20;1.00
10437;DHT22;5265;50.006;9.202;2023-02-01T06:42:13;5.20;1.00
10437;DHT22;5265;50.006;9.202;2023-02-01T06:44:40;5.20;1.00
10437;DHT22;5265;50.006;9.202;2023-02-01T06:47:08;5.20;1.00
10437;DHT22;5265;50.006;9.202;2023-02-01T06:52:04;4.90;99.90
10437;DHT22;5265;50.006;9.202;2023-02-01T06:54:31;5.10;99.90
10437;DHT22;5265;50.006;9.202;2023-02-01T06:56:59;5.30;99.90
10437;DHT22;5265;50.006;9.202;2023-02-01T06:59:27;5.20;99.90
10437;DHT22;5265;50.006;9.202;2023-02-01T07:01:54;5.20;99.90
10437;DHT22;5265;50.006;9.202;2023-02-01T07:04:21;5.30;99.90
10437;DHT22;5265;50.006;9.202;2023-02-01T07:06:48;5.10;99.90
10437;DHT22;5265;50.006;9.202;2023-02-01T07:09:17;5.00;99.90
10437;DHT22;5265;50.006;9.202;2023-02-01T07:11:43;5.30;99.90
10437;DHT22;5265;50.006;9.202;2023-02-01T07:14:11;5.00;99.90
10437;DHT22;5265;50.006;9.202;2023-02-01T07:16:38;5.00;99.90
10437;DHT22;5265;50.006;9.202;2023-02-01T07:19:05;4.80;99.90
10437;DHT22;5265;50.006;9.202;2023-02-01T07:21:33;4.80;99.90
10437;DHT22;5265;50.006;9.202;2023-02-01T07:24:00;4.80;99.90
10437;DHT22;5265;50.006;9.202;2023-02-01T07:26:29;4.80;99.90
10437;DHT22;5265;50.006;9.202;2023-02-01T07:28:56;4.50;1.00
10437;DHT22;5265;50.006;9.202;2023-02-01T07:31:23;4.90;1.00
10437;DHT22;5265;50.006;9.202;2023-02-01T07:36:20;4.70;1.00
10437;DHT22;5265;50.006;9.202;2023-02-01T07:41:16;4.60;1.00
10437;DHT22;5265;50.006;9.202;2023-02-01T07:46:14;5.00;1.00
10437;DHT22;5265;50.006;9.202;2023-02-01T08:06:18;4.90;99.90
10437;DHT22;5265;50.006;9.202;2023-02-01T10:20:09;5.90;99.90
10437;DHT22;5265;50.006;9.202;2023-02-01T10:22:40;6.00;99.90
10437;DHT22;5265;50.006;9.202;2023-02-01T10:25:12;6.00;99.90
10437;DHT22;5265;50.006;9.202;2023-02-01T10:27:40;6.00;99.90
10437;DHT22;5265;50.006;9.202;2023-02-01T10:30:14;6.10;99.90
10437;DHT22;5265;50.006;9.202;2023-02-01T10:32:42;6.00;99.90
10437;DHT22;5265;50.006;9.202;2023-02-01T10:37:39;6.20;99.90
10437;DHT22;5265;50.006;9.202;2023-02-01T18:12:38;6.70;99.90
10437;DHT22;5265;50.006;9.202;2023-02-01T18:15:15;6.60;99.90
10437;DHT22;5265;50.006;9.202;2023-02-01T18:17:42;6.50;99.90
10437;DHT22;5265;50.006;9.202;2023-02-01T18:20:12;6.50;99.90
10437;DHT22;5265;50.006;9.202;2023-02-01T18:22:40;6.50;99.90
10437;DHT22;5265;50.006;9.202;2023-02-01T18:25:14;6.50;99.90
10437;DHT22;5265;50.006;9.202;2023-02-01T18:27:44;6.50;99.90
10437;DHT22;5265;50.006;9.202;2023-02-01T18:30:11;6.40;99.90
10437;DHT22;5265;50.006;9.202;2023-02-01T18:32:39;6.30;99.90
10437;DHT22;5265;50.006;9.202;2023-02-01T18:35:16;6.30;99.90
10437;DHT22;5265;50.006;9.202;2023-02-01T18:37:44;6.40;99.90
10437;DHT22;5265;50.006;9.202;2023-02-01T18:40:13;6.30;99.90
10437;DHT22;5265;50.006;9.202;2023-02-01T18:42:40;6.30;99.90
10437;DHT22;5265;50.006;9.202;2023-02-01T18:45:13;6.30;99.90
10437;DHT22;5265;50.006;9.202;2023-02-01T18:47:45;6.20;99.90
10437;DHT22;5265;50.006;9.202;2023-02-01T18:50:13;6.30;99.90
10437;DHT22;5265;50.006;9.202;2023-02-01T18:52:39;6.20;99.90
10437;DHT22;5265;50.006;9.202;2023-02-01T18:55:07;6.30;99.90
10437;DHT22;5265;50.006;9.202;2023-02-01T18:57:34;6.20;99.90
10437;DHT22;5265;50.006;9.202;2023-02-01T19:00:03;6.20;99.90
10437;DHT22;5265;50.006;9.202;2023-02-01T19:02:31;6.20;99.90
10437;DHT22;5265;50.006;9.202;2023-02-01T19:04:58;6.20;99.90
10437;DHT22;5265;50.006;9.202;2023-02-01T19:07:26;6.30;99.90
10437;DHT22;5265;50.006;9.202;2023-02-01T19:09:53;6.20;99.90
10437;DHT22;5265;50.006;9.202;2023-02-01T19:12:20;6.20;99.90
10437;DHT22;5265;50.006;9.202;2023-02-01T19:14:47;6.20;99.90
10437;DHT22;5265;50.006;9.202;2023-02-01T19:17:14;6.20;99.90
10437;DHT22;5265;50.006;9.202;2023-02-01T19:19:43;6.10;99.90
10437;DHT22;5265;50.006;9.202;2023-02-01T19:22:10;6.10;99.90
10437;DHT22;5265;50.006;9.202;2023-02-01T19:24:38;6.10;99.90
10437;DHT22;5265;50.006;9.202;2023-02-01T19:27:05;6.10;99.90
10437;DHT22;5265;50.006;9.202;2023-02-01T19:29:33;6.10;99.90
10437;DHT22;5265;50.006;9.202;2023-02-01T19:32:02;6.10;99.90
10437;DHT22;5265;50.006;9.202;2023-02-01T19:34:29;6.10;99.90
10437;DHT22;5265;50.006;9.202;2023-02-01T19:36:59;6.10;99.90
10437;DHT22;5265;50.006;9.202;2023-02-01T19:39:26;6.00;99.90
10437;DHT22;5265;50.006;9.202;2023-02-01T19:41:53;6.40;99.90
10437;DHT22;5265;50.006;9.202;2023-02-01T19:44:20;6.00;99.90
10437;DHT22;5265;50.006;9.202;2023-02-01T19:46:47;6.00;99.90
10437;DHT22;5265;50.006;9.202;2023-02-01T19:49:14;6.10;99.90
10437;DHT22;5265;50.006;9.202;2023-02-01T19:51:42;5.90;99.90
10437;DHT22;5265;50.006;9.202;2023-02-01T19:54:11;6.00;99.90
10437;DHT22;5265;50.006;9.202;2023-02-01T19:56:38;6.00;99.90
10437;DHT22;5265;50.006;9.202;2023-02-01T19:59:06;5.90;99.90
10437;DHT22;5265;50.006;9.202;2023-02-01T20:01:33;6.00;99.90
10437;DHT22;5265;50.006;9.202;2023-02-01T20:04:03;5.90;99.90
10437;DHT22;5265;50.006;9.202;2023-02-01T20:06:32;5.90;99.90
10437;DHT22;5265;50.006;9.202;2023-02-01T20:09:00;5.90;99.90
10437;DHT22;5265;50.006;9.202;2023-02-01T20:11:28;5.90;99.90
10437;DHT22;5265;50.006;9.202;2023-02-01T20:13:56;5.90;99.90
10437;DHT22;5265;50.006;9.202;2023-02-01T20:16:23;5.90;99.90
10437;DHT22;5265;50.006;9.202;2023-02-01T20:18:51;5.90;99.90
10437;DHT22;5265;50.006;9.202;2023-02-01T20:21:18;5.80;99.90
10437;DHT22;5265;50.006;9.202;2023-02-01T20:23:45;5.90;99.90
10437;DHT22;5265;50.006;9.202;2023-02-01T20:26:13;5.80;99.90
10437;DHT22;5265;50.006;9.202;2023-02-01T20:28:42;5.70;99.90
10437;DHT22;5265;50.006;9.202;2023-02-01T20:31:09;5.70;99.90
10437;DHT22;5265;50.006;9.202;2023-02-01T20:33:36;5.70;99.90
10437;DHT22;5265;50.006;9.202;2023-02-01T20:36:03;5.70;99.90
10437;DHT22;5265;50.006;9.202;2023-02-01T20:38:31;5.70;99.90
10437;DHT22;5265;50.006;9.202;2023-02-01T20:41:01;5.70;99.90
10437;DHT22;5265;50.006;9.202;2023-02-01T20:43:29;5.70;99.90
10437;DHT22;5265;50.006;9.202;2023-02-01T20:45:57;5.70;99.90
10437;DHT22;5265;50.006;9.202;2023-02-01T20:48:24;5.70;99.90
10437;DHT22;5265;50.006;9.202;2023-02-01T20:50:52;5.70;99.90
10437;DHT22;5265;50.006;9.202;2023-02-01T20:53:19;5.80;99.90
10437;DHT22;5265;50.006;9.202;2023-02-01T20:55:49;5.80;99.90
10437;DHT22;5265;50.006;9.202;2023-02-01T20:58:16;5.80;99.90
10437;DHT22;5265;50.006;9.202;2023-02-01T21:00:44;5.90;99.90
10437;DHT22;5265;50.006;9.202;2023-02-01T21:03:12;5.80;99.90
10437;DHT22;5265;50.006;9.202;2023-02-01T21:05:39;5.80;99.90
10437;DHT22;5265;50.006;9.202;2023-02-01T21:08:11;6.00;99.90
10437;DHT22;5265;50.006;9.202;2023-02-01T21:10:38;5.90;99.90
10437;DHT22;5265;50.006;9.202;2023-02-01T21:13:05;6.00;99.90
10437;DHT22;5265;50.006;9.202;2023-02-01T21:15:33;6.00;99.90
10437;DHT22;5265;50.006;9.202;2023-02-01T21:18:01;6.00;99.90
10437;DHT22;5265;50.006;9.202;2023-02-01T21:20:30;6.00;99.90
10437;DHT22;5265;50.006;9.202;2023-02-01T21:22:57;6.10;99.90
10437;DHT22;5265;50.006;9.202;2023-02-01T21:25:24;6.10;99.90
10437;DHT22;5265;50.006;9.202;2023-02-01T21:27:51;6.10;99.90
10437;DHT22;5265;50.006;9.202;2023-02-01T21:30:18;6.10;99.90
10437;DHT22;5265;50.006;9.202;2023-02-01T21:32:45;6.10;99.90
10437;DHT22;5265;50.006;9.202;2023-02-01T21:35:14;6.10;99.90
10437;DHT22;5265;50.006;9.202;2023-02-01T21:37:43;6.20;99.90
10437;DHT22;5265;50.006;9.202;2023-02-01T21:40:10;6.10;99.90
10437;DHT22;5265;50.006;9.202;2023-02-01T21:42:39;6.10;99.90
10437;DHT22;5265;50.006;9.202;2023-02-01T21:45:08;6.70;99.90
10437;DHT22;5265;50.006;9.202;2023-02-01T21:47:35;6.20;99.90
10437;DHT22;5265;50.006;9.202;2023-02-01T21:50:03;6.80;99.90
10437;DHT22;5265;50.006;9.202;2023-02-01T21:52:30;6.20;99.90
10437;DHT22;5265;50.006;9.202;2023-02-01T21:54:59;6.10;99.90
10437;DHT22;5265;50.006;9.202;2023-02-01T21:57:26;6.60;99.90
10437;DHT22;5265;50.006;9.202;2023-02-01T21:59:54;6.20;99.90
10437;DHT22;5265;50.006;9.202;2023-02-01T22:02:21;6.30;99.90
10437;DHT22;5265;50.006;9.202;2023-02-01T22:04:48;6.20;99.90
10437;DHT22;5265;50.006;9.202;2023-02-01T22:07:15;6.20;99.90
10437;DHT22;5265;50.006;9.202;2023-02-01T22:09:42;6.60;99.90
10437;DHT22;5265;50.006;9.202;2023-02-01T22:12:11;6.40;99.90
10437;DHT22;5265;50.006;9.202;2023-02-01T22:14:39;6.30;99.90
10437;DHT22;5265;50.006;9.202;2023-02-01T22:17:09;6.40;99.90
10437;DHT22;5265;50.006;9.202;2023-02-01T22:19:37;6.40;99.90
10437;DHT22;5265;50.006;9.202;2023-02-01T22:22:04;6.30;99.90
10437;DHT22;5265;50.006;9.202;2023-02-01T22:24:32;6.30;99.90
10437;DHT22;5265;50.006;9.202;2023-02-01T22:26:59;6.40;99.90
10437;DHT22;5265;50.006;9.202;2023-02-01T22:34:23;6.40;99.90
10437;DHT22;5265;50.006;9.202;2023-02-01T22:39:18;6.40;99.90
10437;DHT22;5265;50.006;9.202;2023-02-01T22:41:45;6.70;99.90
10437;DHT22;5265;50.006;9.202;2023-02-01T22:44:12;6.60;99.90
10437;DHT22;5265;50.006;9.202;2023-02-01T22:46:39;6.60;99.90
10437;DHT22;5265;50.006;9.202;2023-02-01T22:49:06;6.60;99.90
10437;DHT22;5265;50.006;9.202;2023-02-01T22:51:35;6.60;99.90
10437;DHT22;5265;50.006;9.202;2023-02-01T22:56:30;6.60;99.90
10437;DHT22;5265;50.006;9.202;2023-02-01T22:58:58;7.40;99.90
10437;DHT22;5265;50.006;9.202;2023-02-01T23:01:26;7.60;99.90
10437;DHT22;5265;50.006;9.202;2023-02-01T23:03:57;6.70;99.90
10437;DHT22;5265;50.006;9.202;2023-02-01T23:06:24;7.40;99.90
10437;DHT22;5265;50.006;9.202;2023-02-01T23:08:54;6.60;99.90
10437;DHT22;5265;50.006;9.202;2023-02-01T23:11:22;6.70;99.90
10437;DHT22;5265;50.006;9.202;2023-02-01T23:13:49;6.70;99.90
10437;DHT22;5265;50.006;9.202;2023-02-01T23:16:17;6.70;99.90
10437;DHT22;5265;50.006;9.202;2023-02-01T23:18:44;6.50;99.90
10437;DHT22;5265;50.006;9.202;2023-02-01T23:21:12;6.30;99.90
10437;DHT22;5265;50.006;9.202;2023-02-01T23:23:39;6.50;99.90
10437;DHT22;5265;50.006;9.202;2023-02-01T23:38:25;6.40;99.90
10437;DHT22;5265;50.006;9.202;2023-02-01T23:40:55;6.50;99.90
10437;DHT22;5265;50.006;9.202;2023-02-01T23:56:02;6.20;99.90
